Terminal Aerodrome Forecast
Issued by NWS Topeka, KS

Home | Current Version | Previous Version | Graphics & Text | Print | Product List | Glossary On
Versions: 1 2 3 4 5 6 7 8 9 10 11 12 13 14 15 16 17 18 19 20 21
000
FTUS43 KTOP 070039 AAA
TAFTOP
TAF AMD
KTOP 070039Z 0701/0724 01010KT P6SM -SHRA SCT040 OVC100
     FM070200 01012KT P6SM VCSH OVC015
     FM070800 01010KT P6SM SCT008 BKN035
     FM071500 02009KT P6SM SCT100=

USA.gov is the U.S. government's official web portal to all federal, state and local government web resources and services.